Time,TemperatureF,DewpointF,PressureIn,WindDirection,WindDirectionDegrees,WindSpeedMPH,WindSpeedGustMPH,Humidity,HourlyPrecipIn,Conditions,Clouds,dailyrainin,SolarRadiationWatts/m^2,SoftwareType,DateUTC
2013-07-28 00:02:00,66.0,66.0,30.06,SW,229,1.0,7.0,100,0.00,,,2.56,0.000000,,2013-07-28 04:02:00,
2013-07-28 00:10:00,66.0,66.0,30.05,South,173,2.0,5.0,100,0.00,,,2.56,0.000000,,2013-07-28 04:10:00,
2013-07-28 00:32:00,66.0,66.0,30.05,South,173,2.0,5.0,100,0.00,,,2.56,0.000000,,2013-07-28 04:32:00,
2013-07-28 00:43:00,66.0,66.0,30.05,South,173,2.0,5.0,100,0.00,,,2.56,0.000000,,2013-07-28 04:43:00,
2013-07-28 00:53:00,66.0,66.0,30.05,South,173,2.0,5.0,100,0.00,,,2.56,0.000000,,2013-07-28 04:53:00,
2013-07-28 01:02:00,66.0,66.0,30.05,South,173,2.0,5.0,100,0.00,,,2.56,0.000000,,2013-07-28 05:02:00,
2013-07-28 01:10:00,64.0,64.0,30.04,SW,220,1.0,5.0,100,0.00,,,2.56,0.000000,,2013-07-28 05:10:00,
2013-07-28 01:32:00,64.0,64.0,30.04,SW,220,1.0,5.0,100,0.00,,,2.56,0.000000,,2013-07-28 05:32:00,
2013-07-28 01:43:00,64.0,64.0,30.04,SW,220,1.0,5.0,100,0.00,,,2.56,0.000000,,2013-07-28 05:43:00,
2013-07-28 01:53:00,64.0,64.0,30.04,SW,220,1.0,5.0,100,0.00,,,2.56,0.000000,,2013-07-28 05:53:00,
2013-07-28 02:02:00,64.0,64.0,30.04,SW,220,1.0,5.0,100,0.00,,,2.56,0.000000,,2013-07-28 06:02:00,
2013-07-28 02:10:00,64.0,64.0,30.03,South,189,2.0,5.0,100,0.00,,,2.56,0.000000,,2013-07-28 06:10:00,
2013-07-28 02:32:00,64.0,64.0,30.03,South,189,2.0,5.0,100,0.00,,,2.56,0.000000,,2013-07-28 06:32:00,
2013-07-28 02:43:00,64.0,64.0,30.03,South,189,2.0,5.0,100,0.00,,,2.56,0.000000,,2013-07-28 06:43:00,
2013-07-28 02:53:00,64.0,64.0,30.03,South,189,2.0,5.0,100,0.00,,,2.56,0.000000,,2013-07-28 06:53:00,
2013-07-28 03:02:00,64.0,64.0,30.03,South,189,2.0,5.0,100,0.00,,,2.56,0.000000,,2013-07-28 07:02:00,
2013-07-28 03:10:00,64.0,64.0,30.02,SW,218,2.0,5.0,100,0.00,,,2.56,0.000000,,2013-07-28 07:10:00,
2013-07-28 03:43:00,64.0,64.0,30.02,SW,218,2.0,5.0,100,0.00,,,2.56,0.000000,,2013-07-28 07:43:00,
2013-07-28 03:53:00,64.0,64.0,30.02,SW,218,2.0,5.0,100,0.00,,,2.56,0.000000,,2013-07-28 07:53:00,
2013-07-28 04:02:00,64.0,64.0,30.02,SW,218,2.0,5.0,100,0.00,,,2.56,0.000000,,2013-07-28 08:02:00,
2013-07-28 04:10:00,64.0,64.0,30.03,SE,141,1.0,5.0,100,0.00,,,2.21,0.000000,,2013-07-28 08:10:00,
2013-07-28 04:43:00,64.0,64.0,30.03,SE,141,1.0,5.0,100,0.00,,,2.21,0.000000,,2013-07-28 08:43:00,
2013-07-28 04:53:00,64.0,64.0,30.03,SE,141,1.0,5.0,100,0.00,,,2.21,0.000000,,2013-07-28 08:53:00,
2013-07-28 05:02:00,64.0,64.0,30.03,SE,141,1.0,5.0,100,0.00,,,2.21,0.000000,,2013-07-28 09:02:00,
2013-07-28 05:10:00,64.0,64.0,30.02,SSW,213,3.0,5.0,100,0.00,,,1.93,0.000000,,2013-07-28 09:10:00,
2013-07-28 05:43:00,64.0,64.0,30.02,SSW,213,3.0,5.0,100,0.00,,,1.93,0.000000,,2013-07-28 09:43:00,
2013-07-28 05:53:00,64.0,64.0,30.02,SSW,213,3.0,5.0,100,0.00,,,1.93,0.000000,,2013-07-28 09:53:00,
2013-07-28 06:02:00,64.0,64.0,30.02,SSW,213,3.0,5.0,100,0.00,,,1.93,0.000000,,2013-07-28 10:02:00,
2013-07-28 06:10:00,64.0,64.0,30.04,NNW,333,1.0,6.0,100,0.00,,,1.91,0.000000,,2013-07-28 10:10:00,
2013-07-28 06:33:00,64.0,64.0,30.04,NNW,333,1.0,6.0,100,0.00,,,1.91,0.000000,,2013-07-28 10:33:00,
2013-07-28 06:42:00,64.0,64.0,30.04,NNW,333,1.0,6.0,100,0.00,,,1.91,0.000000,,2013-07-28 10:42:00,
2013-07-28 06:53:00,64.0,64.0,30.04,NNW,333,1.0,6.0,100,0.00,,,1.91,0.000000,,2013-07-28 10:53:00,
2013-07-28 07:02:00,64.0,64.0,30.04,NNW,333,1.0,6.0,100,0.00,,,1.91,0.000000,,2013-07-28 11:02:00,
2013-07-28 07:10:00,66.0,66.0,30.05,SSW,204,3.0,6.0,100,0.00,,,1.73,0.000000,,2013-07-28 11:10:00,
2013-07-28 07:33:00,66.0,66.0,30.05,SSW,204,3.0,6.0,100,0.00,,,1.73,0.000000,,2013-07-28 11:33:00,
2013-07-28 07:43:00,66.0,66.0,30.05,SSW,204,3.0,6.0,100,0.00,,,1.73,0.000000,,2013-07-28 11:43:00,
2013-07-28 07:54:00,66.0,66.0,30.05,SSW,204,3.0,6.0,100,0.00,,,1.73,0.000000,,2013-07-28 11:54:00,
2013-07-28 08:02:00,66.0,66.0,30.05,SSW,204,3.0,6.0,100,0.00,,,1.73,0.000000,,2013-07-28 12:02:00,
2013-07-28 08:10:00,65.0,65.0,30.06,SSW,209,5.0,9.0,100,0.00,,,1.43,4.000000,,2013-07-28 12:10:00,
2013-07-28 08:43:00,65.0,65.0,30.06,SSW,209,5.0,9.0,100,0.00,,,1.43,4.000000,,2013-07-28 12:43:00,
2013-07-28 08:53:00,65.0,65.0,30.06,SSW,209,5.0,9.0,100,0.00,,,1.43,4.000000,,2013-07-28 12:53:00,
2013-07-28 09:02:00,65.0,65.0,30.06,SSW,209,5.0,9.0,100,0.00,,,1.43,4.000000,,2013-07-28 13:02:00,
2013-07-28 09:10:00,67.0,67.0,30.07,SW,235,2.0,5.0,100,0.00,,,1.23,68.000000,,2013-07-28 13:10:00,
2013-07-28 09:43:00,67.0,67.0,30.07,SW,235,2.0,5.0,100,0.00,,,1.23,68.000000,,2013-07-28 13:43:00,
2013-07-28 09:53:00,67.0,67.0,30.07,SW,235,2.0,5.0,100,0.00,,,1.23,68.000000,,2013-07-28 13:53:00,
2013-07-28 10:02:00,67.0,67.0,30.07,SW,235,2.0,5.0,100,0.00,,,1.23,68.000000,,2013-07-28 14:02:00,
2013-07-28 10:10:00,66.0,66.0,30.07,SW,222,3.0,7.0,100,0.00,,,0.90,83.000000,,2013-07-28 14:10:00,
2013-07-28 10:43:00,66.0,66.0,30.07,SW,222,3.0,7.0,100,0.00,,,0.90,83.000000,,2013-07-28 14:43:00,
2013-07-28 10:53:00,66.0,66.0,30.07,SW,222,3.0,7.0,100,0.00,,,0.90,83.000000,,2013-07-28 14:53:00,
2013-07-28 11:03:00,66.0,66.0,30.07,SW,222,3.0,7.0,100,0.00,,,0.90,83.000000,,2013-07-28 15:03:00,
2013-07-28 11:10:00,70.0,69.0,30.08,WSW,241,2.0,7.0,96,0.00,,,0.29,119.000000,,2013-07-28 15:10:00,
2013-07-28 11:43:00,70.0,69.0,30.08,WSW,241,2.0,7.0,96,0.00,,,0.29,119.000000,,2013-07-28 15:43:00,
2013-07-28 11:53:00,70.0,69.0,30.08,WSW,241,2.0,7.0,96,0.00,,,0.29,119.000000,,2013-07-28 15:53:00,
2013-07-28 12:03:00,70.0,69.0,30.08,WSW,241,2.0,7.0,96,0.00,,,0.29,119.000000,,2013-07-28 16:03:00,
2013-07-28 12:10:00,74.0,66.0,30.09,East,93,2.0,6.0,77,0.00,,,0.29,198.000000,,2013-07-28 16:10:00,
2013-07-28 12:33:00,74.0,66.0,30.09,East,93,2.0,6.0,77,0.00,,,0.29,198.000000,,2013-07-28 16:33:00,
2013-07-28 12:43:00,74.0,66.0,30.09,East,93,2.0,6.0,77,0.00,,,0.29,198.000000,,2013-07-28 16:43:00,
2013-07-28 12:52:00,74.0,66.0,30.09,East,93,2.0,6.0,77,0.00,,,0.29,198.000000,,2013-07-28 16:52:00,
2013-07-28 13:02:00,74.0,66.0,30.09,East,93,2.0,6.0,77,0.00,,,0.29,198.000000,,2013-07-28 17:02:00,
2013-07-28 13:10:00,82.0,69.0,30.08,SW,223,3.0,9.0,65,0.00,,,0.29,592.000000,,2013-07-28 17:10:00,
2013-07-28 14:10:00,78.0,67.0,30.08,WNW,292,2.0,9.0,69,0.04,,,0.33,1083.000000,,2013-07-28 18:10:00,
2013-07-28 14:33:00,78.0,67.0,30.08,WNW,292,2.0,9.0,69,0.04,,,0.33,1083.000000,,2013-07-28 18:33:00,
2013-07-28 14:43:00,78.0,67.0,30.08,WNW,292,2.0,9.0,69,0.04,,,0.33,1083.000000,,2013-07-28 18:43:00,
2013-07-28 14:52:00,78.0,67.0,30.08,WNW,292,2.0,9.0,69,0.04,,,0.33,1083.000000,,2013-07-28 18:52:00,
2013-07-28 15:03:00,78.0,67.0,30.08,WNW,292,2.0,9.0,69,0.04,,,0.33,1083.000000,,2013-07-28 19:03:00,
2013-07-28 15:10:00,77.0,71.0,30.05,North,349,4.0,10.0,82,0.05,,,0.38,694.000000,,2013-07-28 19:10:00,
2013-07-28 15:43:00,77.0,71.0,30.05,North,349,4.0,10.0,82,0.05,,,0.38,694.000000,,2013-07-28 19:43:00,
2013-07-28 15:53:00,77.0,71.0,30.05,North,349,4.0,10.0,82,0.05,,,0.38,694.000000,,2013-07-28 19:53:00,
2013-07-28 16:03:00,77.0,71.0,30.05,North,349,4.0,10.0,82,0.05,,,0.38,694.000000,,2013-07-28 20:03:00,
2013-07-28 16:10:00,82.0,67.0,30.04,SSW,197,4.0,12.0,61,0.00,,,0.38,846.000000,,2013-07-28 20:10:00,
2013-07-28 16:33:00,82.0,67.0,30.04,SSW,197,4.0,12.0,61,0.00,,,0.38,846.000000,,2013-07-28 20:33:00,
2013-07-28 16:43:00,82.0,67.0,30.04,SSW,197,4.0,12.0,61,0.00,,,0.38,846.000000,,2013-07-28 20:43:00,
2013-07-28 16:53:00,82.0,67.0,30.04,SSW,197,4.0,12.0,61,0.00,,,0.38,846.000000,,2013-07-28 20:53:00,
2013-07-28 17:03:00,82.0,67.0,30.04,SSW,197,4.0,12.0,61,0.00,,,0.38,846.000000,,2013-07-28 21:03:00,
2013-07-28 17:10:00,79.0,69.0,30.05,SW,229,5.0,14.0,72,0.00,,,0.38,1029.000000,,2013-07-28 21:10:00,
2013-07-28 17:44:00,79.0,69.0,30.05,SW,229,5.0,14.0,72,0.00,,,0.38,1029.000000,,2013-07-28 21:44:00,
2013-07-28 17:52:00,79.0,69.0,30.05,SW,229,5.0,14.0,72,0.00,,,0.38,1029.000000,,2013-07-28 21:52:00,
2013-07-28 18:02:00,79.0,69.0,30.05,SW,229,5.0,14.0,72,0.00,,,0.38,1029.000000,,2013-07-28 22:02:00,
2013-07-28 18:10:00,75.0,68.0,30.06,SSW,205,7.0,13.0,78,0.00,,,0.38,470.000000,,2013-07-28 22:10:00,
2013-07-28 18:32:00,75.0,68.0,30.06,SSW,205,7.0,13.0,78,0.00,,,0.38,470.000000,,2013-07-28 22:32:00,
2013-07-28 18:43:00,75.0,68.0,30.06,SSW,205,7.0,13.0,78,0.00,,,0.38,470.000000,,2013-07-28 22:43:00,
2013-07-28 18:52:00,75.0,68.0,30.06,SSW,205,7.0,13.0,78,0.00,,,0.38,470.000000,,2013-07-28 22:52:00,
2013-07-28 19:03:00,75.0,68.0,30.06,SSW,205,7.0,13.0,78,0.00,,,0.38,470.000000,,2013-07-28 23:03:00,
2013-07-28 19:10:00,77.0,65.0,30.06,WNW,295,4.0,10.0,66,0.00,,,-99.99,400.000000,,2013-07-28 23:10:00,
2013-07-28 19:33:00,77.0,65.0,30.06,WNW,295,4.0,10.0,66,0.00,,,-99.99,400.000000,,2013-07-28 23:33:00,
2013-07-28 19:43:00,77.0,65.0,30.06,WNW,295,4.0,10.0,66,0.00,,,-99.99,400.000000,,2013-07-28 23:43:00,
2013-07-28 19:53:00,77.0,65.0,30.06,WNW,295,4.0,10.0,66,0.00,,,-99.99,400.000000,,2013-07-28 23:53:00,
2013-07-28 20:03:00,77.0,65.0,30.06,WNW,295,4.0,10.0,66,0.00,,,-99.99,400.000000,,2013-07-29 00:03:00,
2013-07-28 20:10:00,71.0,57.0,30.08,WNW,303,4.0,11.0,62,0.00,,,-99.99,284.000000,,2013-07-29 00:10:00,
2013-07-28 20:43:00,71.0,57.0,30.08,WNW,303,4.0,11.0,62,0.00,,,-99.99,284.000000,,2013-07-29 00:43:00,
2013-07-28 20:52:00,71.0,57.0,30.08,WNW,303,4.0,11.0,62,0.00,,,-99.99,284.000000,,2013-07-29 00:52:00,
2013-07-28 21:02:00,71.0,57.0,30.08,WNW,303,4.0,11.0,62,0.00,,,-99.99,284.000000,,2013-07-29 01:02:00,
2013-07-28 21:10:00,68.0,55.0,30.10,WNW,299,3.0,9.0,64,0.00,,,0.20,124.000000,,2013-07-29 01:10:00,
2013-07-28 21:39:00,68.0,55.0,30.10,WNW,299,3.0,9.0,64,0.00,,,0.20,124.000000,,2013-07-29 01:39:00,
2013-07-28 21:47:00,68.0,55.0,30.10,WNW,299,3.0,9.0,64,0.00,,,0.20,124.000000,,2013-07-29 01:47:00,
2013-07-28 22:01:00,68.0,55.0,30.10,WNW,299,3.0,9.0,64,0.00,,,0.20,124.000000,,2013-07-29 02:01:00,
2013-07-28 22:06:00,68.0,55.0,30.10,WNW,299,3.0,9.0,64,0.00,,,0.20,124.000000,,2013-07-29 02:06:00,
2013-07-28 22:10:00,70.0,57.0,30.12,NNW,339,6.0,10.0,63,0.00,,,0.09,9.000000,,2013-07-29 02:10:00,
2013-07-28 22:39:00,70.0,57.0,30.12,NNW,339,6.0,10.0,63,0.00,,,0.09,9.000000,,2013-07-29 02:39:00,
2013-07-28 22:50:00,70.0,57.0,30.12,NNW,339,6.0,10.0,63,0.00,,,0.09,9.000000,,2013-07-29 02:50:00,
2013-07-28 22:59:00,70.0,57.0,30.12,NNW,339,6.0,10.0,63,0.00,,,0.09,9.000000,,2013-07-29 02:59:00,
2013-07-28 23:04:00,70.0,57.0,30.12,NNW,339,6.0,10.0,63,0.00,,,0.09,9.000000,,2013-07-29 03:04:00,
2013-07-28 23:10:00,64.0,56.0,30.12,North,357,8.0,13.0,76,0.00,,,0.09,0.000000,,2013-07-29 03:10:00,
2013-07-28 23:50:00,64.0,56.0,30.12,North,357,8.0,13.0,76,0.00,,,0.09,0.000000,,2013-07-29 03:50:00,
2013-07-28 23:58:00,64.0,56.0,30.12,North,357,8.0,13.0,76,0.00,,,0.09,0.000000,,2013-07-29 03:58:00,